createdAt,value
2022-11-16T02:02:04.834Z,18.50
2022-11-16T02:04:32.534Z,18.61
2022-11-16T02:07:56.686Z,18.57
2022-11-16T02:10:39.308Z,18.56
2022-11-16T02:13:13.881Z,18.48
2022-11-16T02:16:15.792Z,18.41
2022-11-16T02:19:12.050Z,18.61
2022-11-16T02:21:52.232Z,18.70
2022-11-16T02:25:17.649Z,18.39
2022-11-16T02:28:02.310Z,18.60
2022-11-16T02:30:29.592Z,18.74
2022-11-16T02:33:04.980Z,18.75
2022-11-16T02:35:36.950Z,18.95
2022-11-16T02:38:13.688Z,18.88
2022-11-16T02:41:01.960Z,18.73
2022-11-16T02:43:38.580Z,18.80
2022-11-16T02:46:09.903Z,17.08
2022-11-16T02:48:43.722Z,18.33
2022-11-16T02:51:12.224Z,17.74
2022-11-16T02:53:52.476Z,18.27
2022-11-16T02:56:19.949Z,18.58
2022-11-16T02:58:48.182Z,18.64
2022-11-16T03:01:36.631Z,18.42
2022-11-16T03:04:20.521Z,18.57
2022-11-16T03:06:51.601Z,18.48
2022-11-16T03:09:24.731Z,18.35
2022-11-16T03:11:59.790Z,18.47
2022-11-16T03:14:42.459Z,18.76
2022-11-16T03:17:20.208Z,18.80
2022-11-16T03:20:04.626Z,18.82
2022-11-16T03:22:45.828Z,18.93
2022-11-16T03:25:16.787Z,17.16
2022-11-16T03:28:05.750Z,15.16
2022-11-16T03:30:41.141Z,16.22
2022-11-16T03:33:21.056Z,17.21
2022-11-16T03:36:11.653Z,17.74
2022-11-16T03:38:41.589Z,18.28
2022-11-16T03:41:11.278Z,18.58
2022-11-16T03:43:40.534Z,18.75
2022-11-16T03:46:08.195Z,18.99
2022-11-16T03:48:36.597Z,19.06
2022-11-16T03:51:04.896Z,19.16
2022-11-16T03:53:31.935Z,19.08
2022-11-16T03:55:59.362Z,19.21
2022-11-16T03:58:26.417Z,19.19
2022-11-16T04:00:54.674Z,19.24
2022-11-16T04:03:22.058Z,19.31
2022-11-16T04:06:07.939Z,19.41
2022-11-16T04:08:53.417Z,19.29
2022-11-16T04:11:41.349Z,19.24
2022-11-16T04:14:36.464Z,19.04
2022-11-16T04:17:23.380Z,18.70
2022-11-16T04:20:09.009Z,18.85
2022-11-16T04:23:10.110Z,18.76
2022-11-16T04:25:39.460Z,19.05
2022-11-16T04:28:13.747Z,19.06
2022-11-16T04:31:04.952Z,19.03
2022-11-16T04:33:51.840Z,19.04
2022-11-16T04:36:37.666Z,19.02
2022-11-16T04:39:05.698Z,19.08
2022-11-16T04:41:51.788Z,19.07
2022-11-16T04:44:19.821Z,19.14
2022-11-16T04:47:05.971Z,19.27
2022-11-16T04:49:33.862Z,19.23
2022-11-16T04:52:01.133Z,18.99
